sensor_id;sensor_type;location;lat;lon;timestamp;P1;durP1;ratioP1;P2;durP2;ratioP2
47882;SDS011;37739;50.350;7.578;2023-12-20T00:02:27;1.97;;;1.13;;
47882;SDS011;37739;50.350;7.578;2023-12-20T00:04:54;1.40;;;1.30;;
47882;SDS011;37739;50.350;7.578;2023-12-20T00:07:19;1.43;;;1.27;;
47882;SDS011;37739;50.350;7.578;2023-12-20T00:09:44;1.57;;;1.40;;
47882;SDS011;37739;50.350;7.578;2023-12-20T00:12:12;1.70;;;1.27;;
47882;SDS011;37739;50.350;7.578;2023-12-20T00:14:37;2.60;;;1.40;;
47882;SDS011;37739;50.350;7.578;2023-12-20T00:17:05;1.50;;;1.40;;
47882;SDS011;37739;50.350;7.578;2023-12-20T00:19:31;3.10;;;1.93;;
47882;SDS011;37739;50.350;7.578;2023-12-20T00:21:56;1.50;;;1.30;;
47882;SDS011;37739;50.350;7.578;2023-12-20T00:24:23;1.50;;;1.40;;
47882;SDS011;37739;50.350;7.578;2023-12-20T00:26:51;1.50;;;1.40;;
47882;SDS011;37739;50.350;7.578;2023-12-20T00:29:17;1.20;;;1.03;;
47882;SDS011;37739;50.350;7.578;2023-12-20T00:31:44;1.63;;;1.23;;
47882;SDS011;37739;50.350;7.578;2023-12-20T00:34:12;1.30;;;1.20;;
47882;SDS011;37739;50.350;7.578;2023-12-20T00:36:39;1.70;;;1.27;;
47882;SDS011;37739;50.350;7.578;2023-12-20T00:39:07;1.63;;;1.53;;
47882;SDS011;37739;50.350;7.578;2023-12-20T00:41:34;1.20;;;1.10;;
47882;SDS011;37739;50.350;7.578;2023-12-20T00:43:59;1.70;;;1.60;;
47882;SDS011;37739;50.350;7.578;2023-12-20T00:46:27;1.37;;;1.17;;
47882;SDS011;37739;50.350;7.578;2023-12-20T00:48:53;1.40;;;0.90;;
47882;SDS011;37739;50.350;7.578;2023-12-20T00:51:18;1.20;;;1.10;;
47882;SDS011;37739;50.350;7.578;2023-12-20T00:53:49;1.37;;;1.27;;
47882;SDS011;37739;50.350;7.578;2023-12-20T00:56:20;1.50;;;1.40;;
47882;SDS011;37739;50.350;7.578;2023-12-20T00:58:48;1.70;;;1.60;;
47882;SDS011;37739;50.350;7.578;2023-12-20T01:01:18;1.67;;;1.30;;
47882;SDS011;37739;50.350;7.578;2023-12-20T01:03:43;1.50;;;1.40;;
47882;SDS011;37739;50.350;7.578;2023-12-20T01:06:09;1.30;;;1.20;;
47882;SDS011;37739;50.350;7.578;2023-12-20T01:08:34;1.53;;;1.43;;
47882;SDS011;37739;50.350;7.578;2023-12-20T01:11:03;1.10;;;1.00;;
47882;SDS011;37739;50.350;7.578;2023-12-20T01:13:30;1.17;;;1.07;;
47882;SDS011;37739;50.350;7.578;2023-12-20T01:15:55;1.30;;;1.20;;
47882;SDS011;37739;50.350;7.578;2023-12-20T01:18:21;1.10;;;0.90;;
47882;SDS011;37739;50.350;7.578;2023-12-20T01:20:48;1.83;;;1.40;;
47882;SDS011;37739;50.350;7.578;2023-12-20T01:23:13;1.20;;;1.00;;
47882;SDS011;37739;50.350;7.578;2023-12-20T01:25:41;3.80;;;1.43;;
47882;SDS011;37739;50.350;7.578;2023-12-20T01:28:09;1.53;;;1.30;;
47882;SDS011;37739;50.350;7.578;2023-12-20T01:30:34;1.30;;;1.20;;
47882;SDS011;37739;50.350;7.578;2023-12-20T01:33:00;1.67;;;1.20;;
47882;SDS011;37739;50.350;7.578;2023-12-20T01:35:30;1.30;;;1.00;;
47882;SDS011;37739;50.350;7.578;2023-12-20T01:37:56;1.13;;;1.00;;
47882;SDS011;37739;50.350;7.578;2023-12-20T01:40:24;1.80;;;1.27;;
47882;SDS011;37739;50.350;7.578;2023-12-20T01:43:04;2.07;;;1.20;;
47882;SDS011;37739;50.350;7.578;2023-12-20T01:45:33;1.03;;;0.90;;
47882;SDS011;37739;50.350;7.578;2023-12-20T01:47:58;1.00;;;0.80;;
47882;SDS011;37739;50.350;7.578;2023-12-20T01:50:25;1.40;;;1.07;;
47882;SDS011;37739;50.350;7.578;2023-12-20T01:52:51;1.10;;;0.90;;
47882;SDS011;37739;50.350;7.578;2023-12-20T01:55:20;1.80;;;0.80;;
47882;SDS011;37739;50.350;7.578;2023-12-20T01:57:51;1.33;;;0.93;;
47882;SDS011;37739;50.350;7.578;2023-12-20T02:00:19;1.90;;;1.10;;
47882;SDS011;37739;50.350;7.578;2023-12-20T02:02:50;1.23;;;1.10;;
47882;SDS011;37739;50.350;7.578;2023-12-20T02:05:18;1.13;;;1.00;;
47882;SDS011;37739;50.350;7.578;2023-12-20T02:07:46;1.40;;;1.10;;
47882;SDS011;37739;50.350;7.578;2023-12-20T02:10:13;1.43;;;1.10;;
47882;SDS011;37739;50.350;7.578;2023-12-20T02:12:38;1.30;;;0.90;;
47882;SDS011;37739;50.350;7.578;2023-12-20T02:15:04;1.30;;;1.20;;
47882;SDS011;37739;50.350;7.578;2023-12-20T02:17:30;1.53;;;1.27;;
47882;SDS011;37739;50.350;7.578;2023-12-20T02:19:57;1.10;;;0.90;;
47882;SDS011;37739;50.350;7.578;2023-12-20T02:22:22;1.27;;;1.10;;
47882;SDS011;37739;50.350;7.578;2023-12-20T02:24:47;2.00;;;1.80;;
47882;SDS011;37739;50.350;7.578;2023-12-20T02:27:12;2.03;;;1.70;;
47882;SDS011;37739;50.350;7.578;2023-12-20T02:29:40;1.90;;;1.80;;
47882;SDS011;37739;50.350;7.578;2023-12-20T02:32:05;2.17;;;2.07;;
47882;SDS011;37739;50.350;7.578;2023-12-20T02:34:36;1.40;;;1.30;;
47882;SDS011;37739;50.350;7.578;2023-12-20T02:37:01;1.47;;;1.33;;
47882;SDS011;37739;50.350;7.578;2023-12-20T02:39:26;1.60;;;1.50;;
47882;SDS011;37739;50.350;7.578;2023-12-20T02:41:52;1.30;;;1.10;;
47882;SDS011;37739;50.350;7.578;2023-12-20T02:44:19;1.60;;;1.43;;
47882;SDS011;37739;50.350;7.578;2023-12-20T02:46:44;1.30;;;1.20;;
47882;SDS011;37739;50.350;7.578;2023-12-20T02:49:10;1.70;;;1.60;;
47882;SDS011;37739;50.350;7.578;2023-12-20T02:51:37;1.30;;;1.20;;
47882;SDS011;37739;50.350;7.578;2023-12-20T02:54:05;1.40;;;1.10;;
47882;SDS011;37739;50.350;7.578;2023-12-20T02:56:34;1.63;;;1.47;;
47882;SDS011;37739;50.350;7.578;2023-12-20T02:59:00;1.23;;;1.13;;
47882;SDS011;37739;50.350;7.578;2023-12-20T03:01:28;1.20;;;1.10;;
47882;SDS011;37739;50.350;7.578;2023-12-20T03:03:56;2.33;;;1.40;;
47882;SDS011;37739;50.350;7.578;2023-12-20T03:06:22;1.40;;;1.30;;
47882;SDS011;37739;50.350;7.578;2023-12-20T03:08:47;1.50;;;1.40;;
47882;SDS011;37739;50.350;7.578;2023-12-20T03:11:12;1.80;;;1.60;;
47882;SDS011;37739;50.350;7.578;2023-12-20T03:13:38;2.07;;;1.77;;
47882;SDS011;37739;50.350;7.578;2023-12-20T03:16:09;1.60;;;1.50;;
47882;SDS011;37739;50.350;7.578;2023-12-20T03:18:35;2.10;;;1.63;;
47882;SDS011;37739;50.350;7.578;2023-12-20T03:21:01;1.60;;;1.50;;
47882;SDS011;37739;50.350;7.578;2023-12-20T03:23:28;1.90;;;1.73;;
47882;SDS011;37739;50.350;7.578;2023-12-20T03:25:57;2.40;;;2.20;;
47882;SDS011;37739;50.350;7.578;2023-12-20T03:28:29;3.33;;;2.70;;
47882;SDS011;37739;50.350;7.578;2023-12-20T03:30:54;3.80;;;2.53;;
47882;SDS011;37739;50.350;7.578;2023-12-20T03:33:20;3.57;;;2.23;;
47882;SDS011;37739;50.350;7.578;2023-12-20T03:35:45;3.40;;;1.80;;
47882;SDS011;37739;50.350;7.578;2023-12-20T03:38:12;3.83;;;1.97;;
47882;SDS011;37739;50.350;7.578;2023-12-20T03:40:40;2.73;;;1.90;;
47882;SDS011;37739;50.350;7.578;2023-12-20T03:43:06;6.73;;;2.30;;
47882;SDS011;37739;50.350;7.578;2023-12-20T03:45:31;2.63;;;1.93;;
47882;SDS011;37739;50.350;7.578;2023-12-20T03:47:56;5.23;;;2.10;;
47882;SDS011;37739;50.350;7.578;2023-12-20T03:50:24;3.53;;;2.03;;
47882;SDS011;37739;50.350;7.578;2023-12-20T03:52:54;3.90;;;1.43;;
47882;SDS011;37739;50.350;7.578;2023-12-20T03:55:22;4.70;;;1.83;;
47882;SDS011;37739;50.350;7.578;2023-12-20T03:57:48;3.13;;;1.40;;
47882;SDS011;37739;50.350;7.578;2023-12-20T04:00:13;2.53;;;1.33;;
47882;SDS011;37739;50.350;7.578;2023-12-20T04:02:39;4.03;;;1.90;;
47882;SDS011;37739;50.350;7.578;2023-12-20T04:05:08;4.00;;;1.43;;
47882;SDS011;37739;50.350;7.578;2023-12-20T04:07:37;3.43;;;1.20;;
47882;SDS011;37739;50.350;7.578;2023-12-20T04:10:03;2.23;;;1.30;;
47882;SDS011;37739;50.350;7.578;2023-12-20T04:12:33;1.70;;;1.00;;
47882;SDS011;37739;50.350;7.578;2023-12-20T04:15:01;3.10;;;1.73;;
47882;SDS011;37739;50.350;7.578;2023-12-20T04:17:34;5.10;;;1.97;;
47882;SDS011;37739;50.350;7.578;2023-12-20T04:19:59;3.73;;;1.40;;
47882;SDS011;37739;50.350;7.578;2023-12-20T04:22:27;3.50;;;1.63;;
47882;SDS011;37739;50.350;7.578;2023-12-20T04:24:52;2.40;;;1.40;;
47882;SDS011;37739;50.350;7.578;2023-12-20T04:27:19;3.50;;;1.77;;
47882;SDS011;37739;50.350;7.578;2023-12-20T04:29:44;3.93;;;1.30;;
47882;SDS011;37739;50.350;7.578;2023-12-20T04:32:12;4.07;;;1.30;;
47882;SDS011;37739;50.350;7.578;2023-12-20T04:34:37;3.53;;;1.70;;
47882;SDS011;37739;50.350;7.578;2023-12-20T04:37:03;3.43;;;1.87;;
47882;SDS011;37739;50.350;7.578;2023-12-20T04:39:29;3.30;;;1.60;;
47882;SDS011;37739;50.350;7.578;2023-12-20T04:41:56;3.20;;;1.60;;
47882;SDS011;37739;50.350;7.578;2023-12-20T04:44:22;2.97;;;2.03;;
47882;SDS011;37739;50.350;7.578;2023-12-20T04:46:49;2.00;;;1.30;;
47882;SDS011;37739;50.350;7.578;2023-12-20T04:49:14;4.50;;;1.87;;
47882;SDS011;37739;50.350;7.578;2023-12-20T04:51:42;2.63;;;1.97;;
47882;SDS011;37739;50.350;7.578;2023-12-20T04:54:07;3.97;;;1.77;;
47882;SDS011;37739;50.350;7.578;2023-12-20T04:56:32;6.90;;;2.27;;
47882;SDS011;37739;50.350;7.578;2023-12-20T04:59:00;3.53;;;2.63;;
47882;SDS011;37739;50.350;7.578;2023-12-20T05:01:28;5.63;;;2.90;;
47882;SDS011;37739;50.350;7.578;2023-12-20T05:03:53;4.00;;;2.27;;
47882;SDS011;37739;50.350;7.578;2023-12-20T05:06:18;3.87;;;2.03;;
47882;SDS011;37739;50.350;7.578;2023-12-20T05:08:46;3.60;;;1.93;;
47882;SDS011;37739;50.350;7.578;2023-12-20T05:11:13;3.60;;;2.07;;
47882;SDS011;37739;50.350;7.578;2023-12-20T05:13:41;4.73;;;2.50;;
47882;SDS011;37739;50.350;7.578;2023-12-20T05:16:06;6.73;;;3.10;;
47882;SDS011;37739;50.350;7.578;2023-12-20T05:18:31;2.60;;;2.23;;
47882;SDS011;37739;50.350;7.578;2023-12-20T05:20:57;2.70;;;1.70;;
47882;SDS011;37739;50.350;7.578;2023-12-20T05:23:23;3.70;;;2.00;;
47882;SDS011;37739;50.350;7.578;2023-12-20T05:25:53;5.27;;;1.87;;
47882;SDS011;37739;50.350;7.578;2023-12-20T05:28:20;4.27;;;1.93;;
47882;SDS011;37739;50.350;7.578;2023-12-20T05:30:46;3.10;;;1.70;;
47882;SDS011;37739;50.350;7.578;2023-12-20T05:33:11;4.67;;;2.00;;
47882;SDS011;37739;50.350;7.578;2023-12-20T05:35:39;4.33;;;1.90;;
47882;SDS011;37739;50.350;7.578;2023-12-20T05:38:04;5.37;;;2.20;;
47882;SDS011;37739;50.350;7.578;2023-12-20T05:40:34;2.50;;;1.80;;
47882;SDS011;37739;50.350;7.578;2023-12-20T05:43:04;3.60;;;1.73;;
47882;SDS011;37739;50.350;7.578;2023-12-20T05:45:30;5.30;;;2.00;;
47882;SDS011;37739;50.350;7.578;2023-12-20T05:47:55;4.70;;;1.90;;
47882;SDS011;37739;50.350;7.578;2023-12-20T05:50:23;3.27;;;1.70;;
47882;SDS011;37739;50.350;7.578;2023-12-20T05:52:51;3.70;;;1.93;;
47882;SDS011;37739;50.350;7.578;2023-12-20T05:55:19;3.00;;;1.80;;
47882;SDS011;37739;50.350;7.578;2023-12-20T05:57:44;2.00;;;1.60;;
47882;SDS011;37739;50.350;7.578;2023-12-20T06:00:10;3.17;;;1.90;;
47882;SDS011;37739;50.350;7.578;2023-12-20T06:02:35;3.10;;;1.80;;
47882;SDS011;37739;50.350;7.578;2023-12-20T06:05:02;3.50;;;2.03;;
47882;SDS011;37739;50.350;7.578;2023-12-20T06:07:29;3.23;;;1.77;;
47882;SDS011;37739;50.350;7.578;2023-12-20T06:09:54;4.10;;;2.17;;
47882;SDS011;37739;50.350;7.578;2023-12-20T06:12:22;3.20;;;1.57;;
47882;SDS011;37739;50.350;7.578;2023-12-20T06:14:47;2.53;;;1.70;;
47882;SDS011;37739;50.350;7.578;2023-12-20T06:17:17;2.83;;;1.83;;
47882;SDS011;37739;50.350;7.578;2023-12-20T06:19:43;4.07;;;1.97;;
47882;SDS011;37739;50.350;7.578;2023-12-20T06:22:13;5.63;;;1.77;;
47882;SDS011;37739;50.350;7.578;2023-12-20T06:24:43;4.80;;;2.07;;
47882;SDS011;37739;50.350;7.578;2023-12-20T06:27:08;4.60;;;2.10;;
47882;SDS011;37739;50.350;7.578;2023-12-20T06:29:33;8.27;;;2.57;;
47882;SDS011;37739;50.350;7.578;2023-12-20T06:31:59;6.30;;;2.43;;
47882;SDS011;37739;50.350;7.578;2023-12-20T06:34:25;3.63;;;2.20;;
47882;SDS011;37739;50.350;7.578;2023-12-20T06:36:50;4.03;;;1.87;;
47882;SDS011;37739;50.350;7.578;2023-12-20T06:39:18;3.23;;;1.83;;
47882;SDS011;37739;50.350;7.578;2023-12-20T06:41:46;7.47;;;1.87;;
47882;SDS011;37739;50.350;7.578;2023-12-20T06:44:13;3.50;;;1.50;;
47882;SDS011;37739;50.350;7.578;2023-12-20T06:46:38;4.00;;;1.93;;
47882;SDS011;37739;50.350;7.578;2023-12-20T06:49:06;4.00;;;1.37;;
47882;SDS011;37739;50.350;7.578;2023-12-20T06:51:31;3.33;;;2.00;;
47882;SDS011;37739;50.350;7.578;2023-12-20T06:53:57;5.07;;;1.70;;
47882;SDS011;37739;50.350;7.578;2023-12-20T06:56:22;5.57;;;2.17;;
47882;SDS011;37739;50.350;7.578;2023-12-20T06:58:50;5.60;;;2.37;;
47882;SDS011;37739;50.350;7.578;2023-12-20T07:01:15;3.03;;;1.83;;
47882;SDS011;37739;50.350;7.578;2023-12-20T07:03:43;4.23;;;1.60;;
47882;SDS011;37739;50.350;7.578;2023-12-20T07:06:11;3.83;;;1.43;;
47882;SDS011;37739;50.350;7.578;2023-12-20T07:08:43;4.70;;;2.00;;
47882;SDS011;37739;50.350;7.578;2023-12-20T07:11:09;5.17;;;1.60;;
47882;SDS011;37739;50.350;7.578;2023-12-20T07:13:40;3.60;;;1.50;;
47882;SDS011;37739;50.350;7.578;2023-12-20T07:16:05;3.67;;;1.87;;
47882;SDS011;37739;50.350;7.578;2023-12-20T07:18:35;3.57;;;1.50;;
47882;SDS011;37739;50.350;7.578;2023-12-20T07:21:03;3.33;;;1.73;;
47882;SDS011;37739;50.350;7.578;2023-12-20T07:23:33;4.53;;;2.27;;
47882;SDS011;37739;50.350;7.578;2023-12-20T07:26:01;5.03;;;2.60;;
47882;SDS011;37739;50.350;7.578;2023-12-20T07:28:29;5.80;;;2.80;;
47882;SDS011;37739;50.350;7.578;2023-12-20T07:30:54;6.50;;;3.20;;
47882;SDS011;37739;50.350;7.578;2023-12-20T07:33:24;6.87;;;4.60;;
47882;SDS011;37739;50.350;7.578;2023-12-20T07:35:55;8.57;;;3.80;;
47882;SDS011;37739;50.350;7.578;2023-12-20T07:38:20;5.53;;;3.30;;
47882;SDS011;37739;50.350;7.578;2023-12-20T07:40:48;4.10;;;3.70;;
47882;SDS011;37739;50.350;7.578;2023-12-20T07:43:13;8.50;;;2.83;;
47882;SDS011;37739;50.350;7.578;2023-12-20T07:45:41;6.13;;;2.53;;
47882;SDS011;37739;50.350;7.578;2023-12-20T07:48:06;5.43;;;2.40;;
47882;SDS011;37739;50.350;7.578;2023-12-20T07:50:34;4.70;;;2.47;;
47882;SDS011;37739;50.350;7.578;2023-12-20T07:53:02;3.70;;;2.60;;
47882;SDS011;37739;50.350;7.578;2023-12-20T07:55:28;15.60;;;5.40;;
47882;SDS011;37739;50.350;7.578;2023-12-20T07:57:56;6.30;;;2.83;;
47882;SDS011;37739;50.350;7.578;2023-12-20T08:00:24;5.23;;;2.40;;
47882;SDS011;37739;50.350;7.578;2023-12-20T08:02:51;8.80;;;3.13;;
47882;SDS011;37739;50.350;7.578;2023-12-20T08:05:17;5.23;;;2.70;;
47882;SDS011;37739;50.350;7.578;2023-12-20T08:07:42;4.83;;;3.20;;
47882;SDS011;37739;50.350;7.578;2023-12-20T08:10:07;6.43;;;2.80;;
47882;SDS011;37739;50.350;7.578;2023-12-20T08:12:33;6.20;;;3.43;;
47882;SDS011;37739;50.350;7.578;2023-12-20T08:14:59;6.00;;;2.50;;
47882;SDS011;37739;50.350;7.578;2023-12-20T08:17:24;5.63;;;2.57;;
47882;SDS011;37739;50.350;7.578;2023-12-20T08:19:50;5.83;;;2.50;;
47882;SDS011;37739;50.350;7.578;2023-12-20T08:22:16;5.00;;;2.50;;
47882;SDS011;37739;50.350;7.578;2023-12-20T08:24:46;4.90;;;2.80;;
47882;SDS011;37739;50.350;7.578;2023-12-20T08:27:13;2.63;;;1.97;;
47882;SDS011;37739;50.350;7.578;2023-12-20T08:29:39;4.13;;;2.10;;
47882;SDS011;37739;50.350;7.578;2023-12-20T08:32:04;6.57;;;2.63;;
47882;SDS011;37739;50.350;7.578;2023-12-20T08:34:34;4.70;;;2.07;;
47882;SDS011;37739;50.350;7.578;2023-12-20T08:37:02;5.40;;;2.60;;
47882;SDS011;37739;50.350;7.578;2023-12-20T08:39:30;4.93;;;2.03;;
47882;SDS011;37739;50.350;7.578;2023-12-20T08:41:57;6.60;;;2.80;;
47882;SDS011;37739;50.350;7.578;2023-12-20T08:44:23;4.47;;;2.30;;
47882;SDS011;37739;50.350;7.578;2023-12-20T08:46:48;4.40;;;2.20;;
47882;SDS011;37739;50.350;7.578;2023-12-20T08:49:14;6.00;;;2.47;;
47882;SDS011;37739;50.350;7.578;2023-12-20T08:51:39;6.70;;;2.57;;
47882;SDS011;37739;50.350;7.578;2023-12-20T08:54:05;3.60;;;2.13;;
47882;SDS011;37739;50.350;7.578;2023-12-20T08:56:35;4.90;;;1.90;;
47882;SDS011;37739;50.350;7.578;2023-12-20T08:59:03;4.60;;;2.47;;
47882;SDS011;37739;50.350;7.578;2023-12-20T09:01:28;7.27;;;2.50;;
47882;SDS011;37739;50.350;7.578;2023-12-20T09:03:53;4.63;;;2.30;;
47882;SDS011;37739;50.350;7.578;2023-12-20T09:06:21;6.20;;;2.77;;
47882;SDS011;37739;50.350;7.578;2023-12-20T09:08:46;6.33;;;2.90;;
47882;SDS011;37739;50.350;7.578;2023-12-20T09:11:14;5.43;;;2.90;;
47882;SDS011;37739;50.350;7.578;2023-12-20T09:13:39;4.87;;;3.17;;
47882;SDS011;37739;50.350;7.578;2023-12-20T09:16:05;5.50;;;2.90;;
47882;SDS011;37739;50.350;7.578;2023-12-20T09:18:30;9.33;;;3.20;;
47882;SDS011;37739;50.350;7.578;2023-12-20T09:20:56;3.10;;;2.03;;
47882;SDS011;37739;50.350;7.578;2023-12-20T09:23:21;5.03;;;2.63;;
47882;SDS011;37739;50.350;7.578;2023-12-20T09:25:46;4.80;;;2.77;;
47882;SDS011;37739;50.350;7.578;2023-12-20T09:28:12;8.23;;;3.43;;
47882;SDS011;37739;50.350;7.578;2023-12-20T09:30:37;7.63;;;3.80;;
47882;SDS011;37739;50.350;7.578;2023-12-20T09:33:05;4.77;;;3.20;;
47882;SDS011;37739;50.350;7.578;2023-12-20T09:35:33;6.00;;;3.00;;
47882;SDS011;37739;50.350;7.578;2023-12-20T09:37:58;7.93;;;3.10;;
47882;SDS011;37739;50.350;7.578;2023-12-20T09:40:26;6.73;;;3.17;;
47882;SDS011;37739;50.350;7.578;2023-12-20T09:45:28;4.37;;;2.70;;
47882;SDS011;37739;50.350;7.578;2023-12-20T09:47:56;8.60;;;3.30;;
47882;SDS011;37739;50.350;7.578;2023-12-20T09:50:23;5.00;;;3.20;;
47882;SDS011;37739;50.350;7.578;2023-12-20T09:52:49;6.50;;;3.70;;
47882;SDS011;37739;50.350;7.578;2023-12-20T09:55:17;7.30;;;3.10;;
47882;SDS011;37739;50.350;7.578;2023-12-20T09:57:44;8.40;;;3.50;;
47882;SDS011;37739;50.350;7.578;2023-12-20T10:00:12;5.83;;;2.70;;
47882;SDS011;37739;50.350;7.578;2023-12-20T10:02:39;6.00;;;2.87;;
47882;SDS011;37739;50.350;7.578;2023-12-20T10:05:15;5.43;;;2.53;;
47882;SDS011;37739;50.350;7.578;2023-12-20T10:07:44;3.40;;;2.70;;
47882;SDS011;37739;50.350;7.578;2023-12-20T10:10:09;5.07;;;2.90;;
47882;SDS011;37739;50.350;7.578;2023-12-20T10:12:37;6.10;;;2.40;;
47882;SDS011;37739;50.350;7.578;2023-12-20T10:15:05;5.50;;;2.80;;
47882;SDS011;37739;50.350;7.578;2023-12-20T10:17:35;4.33;;;2.70;;
47882;SDS011;37739;50.350;7.578;2023-12-20T10:20:03;8.00;;;3.00;;
47882;SDS011;37739;50.350;7.578;2023-12-20T10:22:34;5.57;;;2.93;;
47882;SDS011;37739;50.350;7.578;2023-12-20T10:25:00;6.50;;;2.53;;
47882;SDS011;37739;50.350;7.578;2023-12-20T10:27:25;5.07;;;2.60;;
47882;SDS011;37739;50.350;7.578;2023-12-20T10:29:53;6.37;;;3.50;;
47882;SDS011;37739;50.350;7.578;2023-12-20T10:32:25;6.20;;;2.60;;
47882;SDS011;37739;50.350;7.578;2023-12-20T10:34:52;5.90;;;2.93;;
47882;SDS011;37739;50.350;7.578;2023-12-20T10:37:20;4.53;;;2.43;;
47882;SDS011;37739;50.350;7.578;2023-12-20T10:39:49;6.13;;;2.73;;
47882;SDS011;37739;50.350;7.578;2023-12-20T10:42:21;6.30;;;2.33;;
47882;SDS011;37739;50.350;7.578;2023-12-20T10:44:49;6.80;;;2.87;;
47882;SDS011;37739;50.350;7.578;2023-12-20T10:47:15;5.30;;;2.67;;
47882;SDS011;37739;50.350;7.578;2023-12-20T10:49:41;7.60;;;2.47;;
47882;SDS011;37739;50.350;7.578;2023-12-20T10:52:07;5.20;;;2.60;;
47882;SDS011;37739;50.350;7.578;2023-12-20T10:54:34;5.30;;;3.30;;
47882;SDS011;37739;50.350;7.578;2023-12-20T10:56:59;6.20;;;2.40;;
47882;SDS011;37739;50.350;7.578;2023-12-20T10:59:25;4.07;;;2.57;;
47882;SDS011;37739;50.350;7.578;2023-12-20T11:01:54;4.03;;;2.40;;
47882;SDS011;37739;50.350;7.578;2023-12-20T11:07:40;3.80;;;2.87;;
47882;SDS011;37739;50.350;7.578;2023-12-20T11:12:51;6.07;;;2.53;;
47882;SDS011;37739;50.350;7.578;2023-12-20T11:15:20;8.77;;;2.70;;
47882;SDS011;37739;50.350;7.578;2023-12-20T11:17:47;4.90;;;2.73;;
47882;SDS011;37739;50.350;7.578;2023-12-20T11:20:22;6.03;;;3.60;;
47882;SDS011;37739;50.350;7.578;2023-12-20T11:22:52;6.87;;;2.97;;
47882;SDS011;37739;50.350;7.578;2023-12-20T11:25:18;5.13;;;2.87;;
47882;SDS011;37739;50.350;7.578;2023-12-20T11:30:42;5.40;;;2.57;;
47882;SDS011;37739;50.350;7.578;2023-12-20T11:33:08;5.93;;;2.30;;
47882;SDS011;37739;50.350;7.578;2023-12-20T11:35:36;8.03;;;2.30;;
47882;SDS011;37739;50.350;7.578;2023-12-20T11:38:02;7.47;;;2.30;;
47882;SDS011;37739;50.350;7.578;2023-12-20T11:40:27;7.00;;;2.73;;
47882;SDS011;37739;50.350;7.578;2023-12-20T11:42:52;7.30;;;2.60;;
47882;SDS011;37739;50.350;7.578;2023-12-20T11:45:22;4.07;;;2.23;;
47882;SDS011;37739;50.350;7.578;2023-12-20T11:47:50;5.53;;;2.57;;
47882;SDS011;37739;50.350;7.578;2023-12-20T11:50:16;5.40;;;2.43;;
47882;SDS011;37739;50.350;7.578;2023-12-20T11:52:45;5.17;;;2.20;;
47882;SDS011;37739;50.350;7.578;2023-12-20T11:55:11;4.30;;;2.30;;
47882;SDS011;37739;50.350;7.578;2023-12-20T11:57:36;6.53;;;2.67;;
47882;SDS011;37739;50.350;7.578;2023-12-20T12:00:04;8.73;;;3.50;;
47882;SDS011;37739;50.350;7.578;2023-12-20T12:02:31;9.57;;;4.23;;
47882;SDS011;37739;50.350;7.578;2023-12-20T12:04:57;7.07;;;3.60;;
47882;SDS011;37739;50.350;7.578;2023-12-20T12:07:23;8.60;;;4.17;;
47882;SDS011;37739;50.350;7.578;2023-12-20T12:09:51;10.37;;;4.80;;
47882;SDS011;37739;50.350;7.578;2023-12-20T12:12:17;8.70;;;2.67;;
47882;SDS011;37739;50.350;7.578;2023-12-20T12:14:48;7.20;;;3.33;;
47882;SDS011;37739;50.350;7.578;2023-12-20T12:17:14;5.80;;;3.00;;
47882;SDS011;37739;50.350;7.578;2023-12-20T12:19:41;6.40;;;3.60;;
47882;SDS011;37739;50.350;7.578;2023-12-20T12:22:08;5.23;;;2.53;;
47882;SDS011;37739;50.350;7.578;2023-12-20T12:24:39;4.97;;;3.00;;
47882;SDS011;37739;50.350;7.578;2023-12-20T12:27:17;6.57;;;3.43;;
47882;SDS011;37739;50.350;7.578;2023-12-20T12:30:01;6.40;;;3.23;;
47882;SDS011;37739;50.350;7.578;2023-12-20T12:32:28;7.17;;;3.70;;
47882;SDS011;37739;50.350;7.578;2023-12-20T12:34:57;4.20;;;3.00;;
47882;SDS011;37739;50.350;7.578;2023-12-20T12:37:22;6.03;;;3.30;;
47882;SDS011;37739;50.350;7.578;2023-12-20T12:39:54;5.10;;;3.27;;
47882;SDS011;37739;50.350;7.578;2023-12-20T12:42:19;7.37;;;3.50;;
47882;SDS011;37739;50.350;7.578;2023-12-20T12:44:45;6.60;;;3.73;;
47882;SDS011;37739;50.350;7.578;2023-12-20T12:47:11;5.97;;;3.00;;
47882;SDS011;37739;50.350;7.578;2023-12-20T12:49:36;5.87;;;2.90;;
47882;SDS011;37739;50.350;7.578;2023-12-20T12:52:05;8.03;;;2.97;;
47882;SDS011;37739;50.350;7.578;2023-12-20T12:54:30;7.13;;;3.67;;
47882;SDS011;37739;50.350;7.578;2023-12-20T12:56:56;9.07;;;4.73;;
47882;SDS011;37739;50.350;7.578;2023-12-20T12:59:22;12.93;;;6.10;;
47882;SDS011;37739;50.350;7.578;2023-12-20T13:01:48;11.47;;;5.80;;
47882;SDS011;37739;50.350;7.578;2023-12-20T13:04:13;11.50;;;5.93;;
47882;SDS011;37739;50.350;7.578;2023-12-20T13:06:38;9.80;;;4.70;;
47882;SDS011;37739;50.350;7.578;2023-12-20T13:09:07;9.03;;;4.53;;
47882;SDS011;37739;50.350;7.578;2023-12-20T13:11:34;9.60;;;3.93;;
47882;SDS011;37739;50.350;7.578;2023-12-20T13:14:04;8.90;;;4.80;;
47882;SDS011;37739;50.350;7.578;2023-12-20T13:16:30;7.47;;;4.80;;
47882;SDS011;37739;50.350;7.578;2023-12-20T13:18:56;7.87;;;4.30;;
47882;SDS011;37739;50.350;7.578;2023-12-20T13:21:24;9.27;;;4.47;;
47882;SDS011;37739;50.350;7.578;2023-12-20T13:23:49;10.80;;;7.70;;
47882;SDS011;37739;50.350;7.578;2023-12-20T13:26:19;6.80;;;4.40;;
47882;SDS011;37739;50.350;7.578;2023-12-20T13:28:47;8.90;;;3.50;;
47882;SDS011;37739;50.350;7.578;2023-12-20T13:31:12;9.20;;;3.60;;
47882;SDS011;37739;50.350;7.578;2023-12-20T13:33:37;6.57;;;3.33;;
47882;SDS011;37739;50.350;7.578;2023-12-20T13:36:03;5.33;;;2.90;;
47882;SDS011;37739;50.350;7.578;2023-12-20T13:38:29;5.43;;;3.77;;
47882;SDS011;37739;50.350;7.578;2023-12-20T13:40:54;8.20;;;2.70;;
47882;SDS011;37739;50.350;7.578;2023-12-20T13:43:23;5.70;;;3.77;;
47882;SDS011;37739;50.350;7.578;2023-12-20T13:45:51;5.27;;;2.17;;
47882;SDS011;37739;50.350;7.578;2023-12-20T13:48:17;8.00;;;3.37;;
47882;SDS011;37739;50.350;7.578;2023-12-20T13:50:43;7.93;;;2.77;;
47882;SDS011;37739;50.350;7.578;2023-12-20T13:53:08;5.00;;;2.67;;
47882;SDS011;37739;50.350;7.578;2023-12-20T13:55:36;3.53;;;2.83;;
47882;SDS011;37739;50.350;7.578;2023-12-20T13:58:01;5.90;;;3.20;;
47882;SDS011;37739;50.350;7.578;2023-12-20T14:00:29;7.97;;;3.53;;
47882;SDS011;37739;50.350;7.578;2023-12-20T14:02:54;8.53;;;2.73;;
47882;SDS011;37739;50.350;7.578;2023-12-20T14:05:19;4.50;;;2.27;;
47882;SDS011;37739;50.350;7.578;2023-12-20T14:07:45;4.67;;;2.63;;
47882;SDS011;37739;50.350;7.578;2023-12-20T14:10:11;6.67;;;2.80;;
47882;SDS011;37739;50.350;7.578;2023-12-20T14:12:38;5.23;;;2.87;;
47882;SDS011;37739;50.350;7.578;2023-12-20T14:15:04;9.30;;;2.90;;
47882;SDS011;37739;50.350;7.578;2023-12-20T14:17:34;4.27;;;2.80;;
47882;SDS011;37739;50.350;7.578;2023-12-20T14:20:01;8.43;;;3.07;;
47882;SDS011;37739;50.350;7.578;2023-12-20T14:22:32;5.27;;;2.20;;
47882;SDS011;37739;50.350;7.578;2023-12-20T14:24:57;3.77;;;2.57;;
47882;SDS011;37739;50.350;7.578;2023-12-20T14:27:25;7.23;;;3.00;;
47882;SDS011;37739;50.350;7.578;2023-12-20T14:29:55;7.37;;;2.60;;
47882;SDS011;37739;50.350;7.578;2023-12-20T14:32:21;5.57;;;2.80;;
47882;SDS011;37739;50.350;7.578;2023-12-20T14:34:46;5.30;;;2.60;;
47882;SDS011;37739;50.350;7.578;2023-12-20T14:37:12;4.00;;;1.90;;
47882;SDS011;37739;50.350;7.578;2023-12-20T14:39:38;3.27;;;2.13;;
47882;SDS011;37739;50.350;7.578;2023-12-20T14:42:09;7.00;;;2.47;;
47882;SDS011;37739;50.350;7.578;2023-12-20T14:44:38;5.83;;;2.70;;
47882;SDS011;37739;50.350;7.578;2023-12-20T14:47:06;5.17;;;2.00;;
47882;SDS011;37739;50.350;7.578;2023-12-20T14:49:32;6.10;;;2.07;;
47882;SDS011;37739;50.350;7.578;2023-12-20T14:51:57;8.37;;;2.33;;
47882;SDS011;37739;50.350;7.578;2023-12-20T14:54:23;5.00;;;2.20;;
47882;SDS011;37739;50.350;7.578;2023-12-20T14:56:48;5.20;;;1.73;;
47882;SDS011;37739;50.350;7.578;2023-12-20T14:59:14;4.83;;;1.80;;